sensor_id;sensor_type;location;lat;lon;timestamp;pressure;altitude;pressure_sealevel;temperature;humidity
62150;BME280;48134;53.586;10.610;2023-08-07T00:01:43;99766.28;;;13.40;100.00
62150;BME280;48134;53.586;10.610;2023-08-07T00:04:13;99773.19;;;13.38;100.00
62150;BME280;48134;53.586;10.610;2023-08-07T00:06:46;99766.72;;;13.34;100.00
62150;BME280;48134;53.586;10.610;2023-08-07T00:09:14;99762.25;;;13.38;100.00
62150;BME280;48134;53.586;10.610;2023-08-07T00:11:47;99765.47;;;13.40;100.00
62150;BME280;48134;53.586;10.610;2023-08-07T00:14:15;99762.25;;;13.38;100.00
62150;BME280;48134;53.586;10.610;2023-08-07T00:16:49;99758.25;;;13.44;100.00
62150;BME280;48134;53.586;10.610;2023-08-07T00:19:23;99757.41;;;13.35;100.00
62150;BME280;48134;53.586;10.610;2023-08-07T00:21:56;99764.97;;;13.29;100.00
62150;BME280;48134;53.586;10.610;2023-08-07T00:24:30;99755.00;;;13.33;100.00
62150;BME280;48134;53.586;10.610;2023-08-07T00:27:03;99764.78;;;13.25;100.00
62150;BME280;48134;53.586;10.610;2023-08-07T00:29:33;99753.06;;;13.25;100.00
62150;BME280;48134;53.586;10.610;2023-08-07T00:32:07;99759.19;;;13.39;100.00
62150;BME280;48134;53.586;10.610;2023-08-07T00:34:42;99759.66;;;13.33;100.00
62150;BME280;48134;53.586;10.610;2023-08-07T00:37:12;99750.19;;;13.30;100.00
62150;BME280;48134;53.586;10.610;2023-08-07T00:39:45;99760.47;;;13.24;100.00
62150;BME280;48134;53.586;10.610;2023-08-07T00:42:18;99754.03;;;13.20;100.00
62150;BME280;48134;53.586;10.610;2023-08-07T00:44:46;99765.09;;;13.24;100.00
62150;BME280;48134;53.586;10.610;2023-08-07T00:47:14;99759.19;;;13.31;100.00
62150;BME280;48134;53.586;10.610;2023-08-07T00:49:49;99749.03;;;13.22;100.00
62150;BME280;48134;53.586;10.610;2023-08-07T00:52:22;99759.97;;;13.14;100.00
62150;BME280;48134;53.586;10.610;2023-08-07T00:54:55;99754.34;;;13.10;100.00
62150;BME280;48134;53.586;10.610;2023-08-07T00:57:24;99753.03;;;13.07;100.00
62150;BME280;48134;53.586;10.610;2023-08-07T00:59:59;99761.09;;;13.13;100.00
62150;BME280;48134;53.586;10.610;2023-08-07T01:02:32;99760.44;;;13.07;100.00
62150;BME280;48134;53.586;10.610;2023-08-07T01:05:07;99756.56;;;12.99;100.00
62150;BME280;48134;53.586;10.610;2023-08-07T01:07:40;99764.28;;;13.06;100.00
62150;BME280;48134;53.586;10.610;2023-08-07T01:10:13;99756.91;;;13.06;100.00
62150;BME280;48134;53.586;10.610;2023-08-07T01:12:52;99757.19;;;12.96;100.00
62150;BME280;48134;53.586;10.610;2023-08-07T01:15:30;99754.16;;;12.98;100.00
62150;BME280;48134;53.586;10.610;2023-08-07T01:18:07;99746.59;;;12.95;100.00
62150;BME280;48134;53.586;10.610;2023-08-07T01:20:42;99737.91;;;12.92;100.00
62150;BME280;48134;53.586;10.610;2023-08-07T01:23:16;99753.34;;;12.97;100.00
62150;BME280;48134;53.586;10.610;2023-08-07T01:25:49;99740.81;;;12.96;100.00
62150;BME280;48134;53.586;10.610;2023-08-07T01:28:24;99745.16;;;12.97;100.00
62150;BME280;48134;53.586;10.610;2023-08-07T01:31:03;99745.94;;;12.89;100.00
62150;BME280;48134;53.586;10.610;2023-08-07T01:33:42;99746.41;;;12.91;100.00
62150;BME280;48134;53.586;10.610;2023-08-07T01:36:20;99740.63;;;12.84;100.00
62150;BME280;48134;53.586;10.610;2023-08-07T01:38:57;99730.34;;;12.89;100.00
62150;BME280;48134;53.586;10.610;2023-08-07T01:41:31;99729.72;;;12.92;100.00
62150;BME280;48134;53.586;10.610;2023-08-07T01:43:59;99726.84;;;12.89;100.00
62150;BME280;48134;53.586;10.610;2023-08-07T01:46:29;99721.38;;;12.80;100.00
62150;BME280;48134;53.586;10.610;2023-08-07T01:49:02;99724.91;;;12.81;100.00
62150;BME280;48134;53.586;10.610;2023-08-07T01:51:35;99722.94;;;12.81;100.00
62150;BME280;48134;53.586;10.610;2023-08-07T01:54:05;99725.88;;;12.85;100.00
62150;BME280;48134;53.586;10.610;2023-08-07T01:56:38;99717.97;;;12.74;100.00
62150;BME280;48134;53.586;10.610;2023-08-07T01:59:11;99720.69;;;12.74;100.00
62150;BME280;48134;53.586;10.610;2023-08-07T02:01:44;99710.28;;;12.85;100.00
62150;BME280;48134;53.586;10.610;2023-08-07T02:04:12;99715.41;;;12.78;100.00
62150;BME280;48134;53.586;10.610;2023-08-07T02:06:41;99718.59;;;12.71;100.00
62150;BME280;48134;53.586;10.610;2023-08-07T02:09:15;99713.63;;;12.73;100.00
62150;BME280;48134;53.586;10.610;2023-08-07T02:11:48;99708.97;;;12.74;100.00
62150;BME280;48134;53.586;10.610;2023-08-07T02:14:22;99710.09;;;12.73;100.00
62150;BME280;48134;53.586;10.610;2023-08-07T02:16:55;99712.34;;;12.71;100.00
62150;BME280;48134;53.586;10.610;2023-08-07T02:19:28;99709.94;;;12.78;100.00
62150;BME280;48134;53.586;10.610;2023-08-07T02:22:02;99714.44;;;12.74;100.00
62150;BME280;48134;53.586;10.610;2023-08-07T02:24:37;99711.22;;;12.72;100.00
62150;BME280;48134;53.586;10.610;2023-08-07T02:27:06;99710.44;;;12.80;100.00
62150;BME280;48134;53.586;10.610;2023-08-07T02:29:39;99716.84;;;12.75;100.00
62150;BME280;48134;53.586;10.610;2023-08-07T02:32:13;99714.44;;;12.83;100.00
62150;BME280;48134;53.586;10.610;2023-08-07T02:34:41;99730.69;;;12.79;100.00
62150;BME280;48134;53.586;10.610;2023-08-07T02:37:14;99719.44;;;12.81;100.00
62150;BME280;48134;53.586;10.610;2023-08-07T02:39:49;99715.59;;;12.82;100.00
62150;BME280;48134;53.586;10.610;2023-08-07T02:42:22;99723.47;;;12.83;100.00
62150;BME280;48134;53.586;10.610;2023-08-07T02:44:55;99719.72;;;12.70;100.00
62150;BME280;48134;53.586;10.610;2023-08-07T02:47:24;99726.31;;;12.69;100.00
62150;BME280;48134;53.586;10.610;2023-08-07T02:49:57;99722.28;;;12.67;100.00
62150;BME280;48134;53.586;10.610;2023-08-07T02:52:26;99721.97;;;12.68;100.00
62150;BME280;48134;53.586;10.610;2023-08-07T02:54:55;99712.66;;;12.69;100.00
62150;BME280;48134;53.586;10.610;2023-08-07T02:57:30;99716.84;;;12.67;100.00
62150;BME280;48134;53.586;10.610;2023-08-07T03:00:04;99721.47;;;12.66;100.00
62150;BME280;48134;53.586;10.610;2023-08-07T03:02:38;99723.09;;;12.67;100.00
62150;BME280;48134;53.586;10.610;2023-08-07T03:05:11;99711.06;;;12.68;100.00
62150;BME280;48134;53.586;10.610;2023-08-07T03:07:44;99715.22;;;12.66;100.00
62150;BME280;48134;53.586;10.610;2023-08-07T03:10:19;99718.09;;;12.61;100.00
62150;BME280;48134;53.586;10.610;2023-08-07T03:12:52;99716.34;;;12.65;100.00
62150;BME280;48134;53.586;10.610;2023-08-07T03:15:20;99716.19;;;12.61;100.00
62150;BME280;48134;53.586;10.610;2023-08-07T03:17:53;99721.13;;;12.59;100.00
62150;BME280;48134;53.586;10.610;2023-08-07T03:20:27;99711.19;;;12.63;100.00
62150;BME280;48134;53.586;10.610;2023-08-07T03:23:00;99716.97;;;12.62;100.00
62150;BME280;48134;53.586;10.610;2023-08-07T03:25:34;99721.47;;;12.66;100.00
62150;BME280;48134;53.586;10.610;2023-08-07T03:28:08;99711.50;;;12.62;100.00
62150;BME280;48134;53.586;10.610;2023-08-07T03:30:36;99718.13;;;12.69;100.00
62150;BME280;48134;53.586;10.610;2023-08-07T03:33:10;99718.75;;;12.66;100.00
62150;BME280;48134;53.586;10.610;2023-08-07T03:35:43;99717.47;;;12.64;100.00
62150;BME280;48134;53.586;10.610;2023-08-07T03:38:17;99718.28;;;12.64;100.00
62150;BME280;48134;53.586;10.610;2023-08-07T03:40:48;99724.38;;;12.70;100.00
62150;BME280;48134;53.586;10.610;2023-08-07T03:43:21;99723.41;;;12.74;100.00
62150;BME280;48134;53.586;10.610;2023-08-07T03:45:55;99722.75;;;12.69;100.00
62150;BME280;48134;53.586;10.610;2023-08-07T03:48:29;99722.94;;;12.72;100.00
62150;BME280;48134;53.586;10.610;2023-08-07T03:51:03;99729.38;;;12.68;100.00
62150;BME280;48134;53.586;10.610;2023-08-07T03:53:41;99719.41;;;12.72;100.00
62150;BME280;48134;53.586;10.610;2023-08-07T03:56:16;99715.72;;;12.68;100.00
62150;BME280;48134;53.586;10.610;2023-08-07T03:58:49;99711.50;;;12.62;100.00
62150;BME280;48134;53.586;10.610;2023-08-07T04:01:24;99712.16;;;12.67;100.00
62150;BME280;48134;53.586;10.610;2023-08-07T04:03:57;99709.09;;;12.60;100.00
62150;BME280;48134;53.586;10.610;2023-08-07T04:06:30;99710.88;;;12.65;100.00
62150;BME280;48134;53.586;10.610;2023-08-07T04:09:03;99720.50;;;12.62;100.00
62150;BME280;48134;53.586;10.610;2023-08-07T04:11:40;99716.50;;;12.59;100.00
62150;BME280;48134;53.586;10.610;2023-08-07T04:14:13;99708.66;;;12.67;100.00
62150;BME280;48134;53.586;10.610;2023-08-07T04:16:46;99715.22;;;12.66;100.00
62150;BME280;48134;53.586;10.610;2023-08-07T04:19:19;99715.22;;;12.66;100.00
62150;BME280;48134;53.586;10.610;2023-08-07T04:21:52;99717.16;;;12.65;100.00
62150;BME280;48134;53.586;10.610;2023-08-07T04:24:26;99707.03;;;12.66;100.00
62150;BME280;48134;53.586;10.610;2023-08-07T04:27:01;99709.13;;;12.69;100.00
62150;BME280;48134;53.586;10.610;2023-08-07T04:29:35;99715.72;;;12.68;100.00
62150;BME280;48134;53.586;10.610;2023-08-07T04:32:08;99719.91;;;12.74;100.00
62150;BME280;48134;53.586;10.610;2023-08-07T04:34:41;99714.25;;;12.70;100.00
62150;BME280;48134;53.586;10.610;2023-08-07T04:37:14;99715.22;;;12.74;100.00
62150;BME280;48134;53.586;10.610;2023-08-07T04:39:47;99724.91;;;12.81;100.00
62150;BME280;48134;53.586;10.610;2023-08-07T04:42:22;99720.53;;;12.80;100.00
62150;BME280;48134;53.586;10.610;2023-08-07T04:44:55;99719.44;;;12.81;100.00
62150;BME280;48134;53.586;10.610;2023-08-07T04:47:28;99714.75;;;12.81;100.00
62150;BME280;48134;53.586;10.610;2023-08-07T04:50:01;99714.16;;;12.84;100.00
62150;BME280;48134;53.586;10.610;2023-08-07T04:52:34;99716.38;;;12.91;100.00
62150;BME280;48134;53.586;10.610;2023-08-07T04:55:03;99724.25;;;12.92;100.00
62150;BME280;48134;53.586;10.610;2023-08-07T04:57:33;99718.00;;;12.92;100.00
62150;BME280;48134;53.586;10.610;2023-08-07T05:00:08;99724.09;;;12.98;100.00
62150;BME280;48134;53.586;10.610;2023-08-07T05:02:41;99724.28;;;13.01;100.00
62150;BME280;48134;53.586;10.610;2023-08-07T05:05:14;99725.25;;;13.05;100.00
62150;BME280;48134;53.586;10.610;2023-08-07T05:07:43;99710.31;;;13.20;100.00
62150;BME280;48134;53.586;10.610;2023-08-07T05:10:16;99713.84;;;13.21;100.00
62150;BME280;48134;53.586;10.610;2023-08-07T05:12:51;99715.59;;;13.25;100.00
62150;BME280;48134;53.586;10.610;2023-08-07T05:15:22;99708.88;;;13.32;100.00
62150;BME280;48134;53.586;10.610;2023-08-07T05:17:55;99709.66;;;13.32;100.00
62150;BME280;48134;53.586;10.610;2023-08-07T05:20:23;99711.63;;;13.40;100.00
62150;BME280;48134;53.586;10.610;2023-08-07T05:22:51;99710.03;;;13.48;100.00
62150;BME280;48134;53.586;10.610;2023-08-07T05:25:25;99716.91;;;13.54;100.00
62150;BME280;48134;53.586;10.610;2023-08-07T05:28:00;99712.88;;;13.52;100.00
62150;BME280;48134;53.586;10.610;2023-08-07T05:30:33;99709.84;;;13.53;100.00
62150;BME280;48134;53.586;10.610;2023-08-07T05:33:06;99715.97;;;13.59;100.00
62150;BME280;48134;53.586;10.610;2023-08-07T05:35:39;99710.47;;;13.68;100.00
62150;BME280;48134;53.586;10.610;2023-08-07T05:38:12;99709.81;;;13.71;100.00
62150;BME280;48134;53.586;10.610;2023-08-07T05:40:45;99708.69;;;13.72;100.00
62150;BME280;48134;53.586;10.610;2023-08-07T05:43:20;99716.88;;;13.89;100.00
62150;BME280;48134;53.586;10.610;2023-08-07T05:45:53;99718.03;;;13.80;100.00
62150;BME280;48134;53.586;10.610;2023-08-07T05:48:21;99717.50;;;13.86;100.00
62150;BME280;48134;53.586;10.610;2023-08-07T05:50:55;99719.72;;;14.02;100.00
62150;BME280;48134;53.586;10.610;2023-08-07T05:53:28;99715.88;;;13.94;100.00
62150;BME280;48134;53.586;10.610;2023-08-07T05:55:56;99712.16;;;13.99;100.00
62150;BME280;48134;53.586;10.610;2023-08-07T05:58:30;99722.75;;;14.00;100.00
62150;BME280;48134;53.586;10.610;2023-08-07T06:01:04;99723.09;;;13.99;100.00
62150;BME280;48134;53.586;10.610;2023-08-07T06:03:37;99715.50;;;14.04;100.00
62150;BME280;48134;53.586;10.610;2023-08-07T06:06:10;99725.00;;;14.16;100.00
62150;BME280;48134;53.586;10.610;2023-08-07T06:08:43;99734.63;;;14.22;100.00
62150;BME280;48134;53.586;10.610;2023-08-07T06:11:16;99729.63;;;14.24;100.00
62150;BME280;48134;53.586;10.610;2023-08-07T06:13:51;99729.75;;;14.27;100.00
62150;BME280;48134;53.586;10.610;2023-08-07T06:16:24;99728.97;;;14.18;100.00
62150;BME280;48134;53.586;10.610;2023-08-07T06:18:58;99727.81;;;14.37;100.00
62150;BME280;48134;53.586;10.610;2023-08-07T06:21:31;99735.72;;;14.29;100.00
62150;BME280;48134;53.586;10.610;2023-08-07T06:24:04;99730.06;;;14.35;100.00
62150;BME280;48134;53.586;10.610;2023-08-07T06:26:38;99743.44;;;14.36;100.00
62150;BME280;48134;53.586;10.610;2023-08-07T06:29:13;99732.88;;;14.56;100.00
62150;BME280;48134;53.586;10.610;2023-08-07T06:31:46;99743.63;;;14.61;100.00
62150;BME280;48134;53.586;10.610;2023-08-07T06:34:14;99741.53;;;14.58;100.00
62150;BME280;48134;53.586;10.610;2023-08-07T06:36:47;99738.56;;;14.42;100.00
62150;BME280;48134;53.586;10.610;2023-08-07T06:39:20;99737.69;;;14.59;100.00
62150;BME280;48134;53.586;10.610;2023-08-07T06:41:53;99739.81;;;14.53;100.00
62150;BME280;48134;53.586;10.610;2023-08-07T06:44:33;99741.53;;;14.58;100.00
62150;BME280;48134;53.586;10.610;2023-08-07T06:47:07;99736.59;;;14.51;100.00
62150;BME280;48134;53.586;10.610;2023-08-07T06:49:40;99737.13;;;14.44;100.00
62150;BME280;48134;53.586;10.610;2023-08-07T06:52:08;99736.06;;;14.67;100.00
62150;BME280;48134;53.586;10.610;2023-08-07T06:54:41;99735.47;;;14.52;100.00
62150;BME280;48134;53.586;10.610;2023-08-07T06:57:15;99738.16;;;14.70;100.00
62150;BME280;48134;53.586;10.610;2023-08-07T06:59:49;99741.50;;;14.75;100.00
62150;BME280;48134;53.586;10.610;2023-08-07T07:02:17;99743.63;;;14.70;100.00
62150;BME280;48134;53.586;10.610;2023-08-07T07:04:45;99757.44;;;14.73;100.00
62150;BME280;48134;53.586;10.610;2023-08-07T07:07:14;99741.84;;;14.65;100.00
62150;BME280;48134;53.586;10.610;2023-08-07T07:09:42;99735.25;;;14.66;100.00
62150;BME280;48134;53.586;10.610;2023-08-07T07:12:15;99746.97;;;14.75;100.00
62150;BME280;48134;53.586;10.610;2023-08-07T07:14:44;99745.88;;;14.68;100.00
62150;BME280;48134;53.586;10.610;2023-08-07T07:17:18;99743.47;;;14.66;100.00
62150;BME280;48134;53.586;10.610;2023-08-07T07:19:51;99750.03;;;14.74;100.00
62150;BME280;48134;53.586;10.610;2023-08-07T07:22:20;99750.06;;;14.65;100.00
62150;BME280;48134;53.586;10.610;2023-08-07T07:24:53;99752.13;;;14.77;100.00
62150;BME280;48134;53.586;10.610;2023-08-07T07:27:27;99756.28;;;14.83;100.00
62150;BME280;48134;53.586;10.610;2023-08-07T07:29:55;99753.53;;;14.83;100.00
62150;BME280;48134;53.586;10.610;2023-08-07T07:32:24;99748.69;;;14.89;100.00
62150;BME280;48134;53.586;10.610;2023-08-07T07:34:58;99754.94;;;14.89;100.00
62150;BME280;48134;53.586;10.610;2023-08-07T07:37:26;99758.63;;;14.93;100.00
62150;BME280;48134;53.586;10.610;2023-08-07T07:39:54;99754.03;;;15.06;100.00
62150;BME280;48134;53.586;10.610;2023-08-07T07:42:22;99741.41;;;15.14;100.00
62150;BME280;48134;53.586;10.610;2023-08-07T07:44:56;99750.16;;;15.28;100.00
62150;BME280;48134;53.586;10.610;2023-08-07T07:47:30;99747.41;;;15.07;100.00
62150;BME280;48134;53.586;10.610;2023-08-07T07:50:05;99753.50;;;15.13;100.00
62150;BME280;48134;53.586;10.610;2023-08-07T07:52:34;99768.22;;;15.08;100.00
62150;BME280;48134;53.586;10.610;2023-08-07T07:55:03;99768.13;;;15.17;100.00
62150;BME280;48134;53.586;10.610;2023-08-07T07:57:37;99775.91;;;15.36;100.00
62150;BME280;48134;53.586;10.610;2023-08-07T08:00:06;99780.03;;;15.21;100.00
62150;BME280;48134;53.586;10.610;2023-08-07T08:02:40;99774.56;;;15.21;100.00
62150;BME280;48134;53.586;10.610;2023-08-07T08:05:15;99776.97;;;15.23;100.00
62150;BME280;48134;53.586;10.610;2023-08-07T08:07:43;99785.00;;;14.98;100.00
62150;BME280;48134;53.586;10.610;2023-08-07T08:10:11;99792.16;;;14.90;100.00
62150;BME280;48134;53.586;10.610;2023-08-07T08:12:45;99800.19;;;14.95;100.00
62150;BME280;48134;53.586;10.610;2023-08-07T08:15:18;99794.34;;;15.06;100.00
62150;BME280;48134;53.586;10.610;2023-08-07T08:17:54;99799.03;;;15.26;100.00
62150;BME280;48134;53.586;10.610;2023-08-07T08:20:27;99795.34;;;15.22;100.00
62150;BME280;48134;53.586;10.610;2023-08-07T08:23:01;99804.34;;;15.32;100.00
62150;BME280;48134;53.586;10.610;2023-08-07T08:25:35;99781.47;;;15.27;100.00
62150;BME280;48134;53.586;10.610;2023-08-07T08:28:03;99795.97;;;15.28;100.00
62150;BME280;48134;53.586;10.610;2023-08-07T08:30:36;99797.44;;;15.25;100.00
62150;BME280;48134;53.586;10.610;2023-08-07T08:33:06;99813.69;;;15.30;100.00
62150;BME280;48134;53.586;10.610;2023-08-07T08:35:41;99809.22;;;14.96;100.00
62150;BME280;48134;53.586;10.610;2023-08-07T08:38:14;99811.09;;;14.74;100.00
62150;BME280;48134;53.586;10.610;2023-08-07T08:40:52;99821.03;;;14.88;100.00
62150;BME280;48134;53.586;10.610;2023-08-07T08:43:25;99828.03;;;14.68;100.00
62150;BME280;48134;53.586;10.610;2023-08-07T08:46:01;99823.22;;;14.65;100.00
62150;BME280;48134;53.586;10.610;2023-08-07T08:48:38;99830.94;;;14.71;100.00
62150;BME280;48134;53.586;10.610;2023-08-07T08:51:11;99824.38;;;14.93;100.00
62150;BME280;48134;53.586;10.610;2023-08-07T08:53:46;99833.72;;;14.92;100.00
62150;BME280;48134;53.586;10.610;2023-08-07T08:56:21;99828.06;;;14.98;100.00
62150;BME280;48134;53.586;10.610;2023-08-07T08:58:55;99830.31;;;15.25;100.00
62150;BME280;48134;53.586;10.610;2023-08-07T09:01:29;99822.88;;;15.26;100.00
62150;BME280;48134;53.586;10.610;2023-08-07T09:04:05;99820.22;;;15.38;100.00
62150;BME280;48134;53.586;10.610;2023-08-07T09:06:38;99826.97;;;15.20;100.00
62150;BME280;48134;53.586;10.610;2023-08-07T09:09:08;99828.19;;;15.31;100.00
62150;BME280;48134;53.586;10.610;2023-08-07T09:11:42;99816.44;;;15.52;100.00
62150;BME280;48134;53.586;10.610;2023-08-07T09:14:15;99821.53;;;15.62;100.00
62150;BME280;48134;53.586;10.610;2023-08-07T09:16:44;99815.81;;;15.67;100.00
62150;BME280;48134;53.586;10.610;2023-08-07T09:19:19;99827.81;;;15.62;100.00
62150;BME280;48134;53.586;10.610;2023-08-07T09:21:48;99819.25;;;15.64;100.00
62150;BME280;48134;53.586;10.610;2023-08-07T09:24:16;99820.44;;;15.75;100.00
62150;BME280;48134;53.586;10.610;2023-08-07T09:26:51;99835.63;;;15.73;100.00
62150;BME280;48134;53.586;10.610;2023-08-07T09:29:20;99825.91;;;15.75;100.00
62150;BME280;48134;53.586;10.610;2023-08-07T09:31:53;99830.69;;;15.87;100.00
62150;BME280;48134;53.586;10.610;2023-08-07T09:34:30;99833.44;;;15.87;100.00
62150;BME280;48134;53.586;10.610;2023-08-07T09:37:03;99831.03;;;15.86;100.00
62150;BME280;48134;53.586;10.610;2023-08-07T09:39:32;99849.13;;;15.78;100.00
62150;BME280;48134;53.586;10.610;2023-08-07T09:42:13;99843.19;;;15.76;100.00
62150;BME280;48134;53.586;10.610;2023-08-07T09:44:46;99843.59;;;15.87;100.00
62150;BME280;48134;53.586;10.610;2023-08-07T09:47:20;99836.19;;;15.87;100.00
62150;BME280;48134;53.586;10.610;2023-08-07T09:49:55;99845.47;;;15.74;100.00
62150;BME280;48134;53.586;10.610;2023-08-07T09:52:29;99840.56;;;15.37;100.00
62150;BME280;48134;53.586;10.610;2023-08-07T09:54:58;99852.44;;;15.20;100.00
62150;BME280;48134;53.586;10.610;2023-08-07T09:57:26;99862.88;;;14.97;100.00
62150;BME280;48134;53.586;10.610;2023-08-07T10:00:00;99879.72;;;15.08;100.00
62150;BME280;48134;53.586;10.610;2023-08-07T10:02:38;99870.53;;;14.74;100.00
62150;BME280;48134;53.586;10.610;2023-08-07T10:05:13;99878.31;;;14.63;100.00
62150;BME280;48134;53.586;10.610;2023-08-07T10:07:47;99878.13;;;14.59;100.00
62150;BME280;48134;53.586;10.610;2023-08-07T10:10:21;99874.25;;;14.60;100.00
62150;BME280;48134;53.586;10.610;2023-08-07T10:12:55;99864.38;;;14.86;100.00
62150;BME280;48134;53.586;10.610;2023-08-07T10:15:29;99873.41;;;14.86;100.00
62150;BME280;48134;53.586;10.610;2023-08-07T10:18:02;99861.78;;;15.49;100.00
62150;BME280;48134;53.586;10.610;2023-08-07T10:20:38;99865.59;;;15.57;100.00
62150;BME280;48134;53.586;10.610;2023-08-07T10:23:11;99855.50;;;15.91;100.00
62150;BME280;48134;53.586;10.610;2023-08-07T10:25:45;99838.22;;;16.11;100.00
62150;BME280;48134;53.586;10.610;2023-08-07T10:28:18;99851.63;;;16.25;100.00
62150;BME280;48134;53.586;10.610;2023-08-07T10:30:52;99855.63;;;16.49;100.00
62150;BME280;48134;53.586;10.610;2023-08-07T10:33:26;99843.91;;;16.40;100.00
62150;BME280;48134;53.586;10.610;2023-08-07T10:35:57;99852.16;;;16.40;100.00
62150;BME280;48134;53.586;10.610;2023-08-07T10:38:31;99846.44;;;16.11;100.00
62150;BME280;48134;53.586;10.610;2023-08-07T10:41:07;99842.94;;;15.90;100.00
62150;BME280;48134;53.586;10.610;2023-08-07T10:43:41;99860.69;;;15.92;100.00
62150;BME280;48134;53.586;10.610;2023-08-07T10:46:17;99845.00;;;15.93;100.00
62150;BME280;48134;53.586;10.610;2023-08-07T10:48:53;99850.88;;;16.04;100.00
62150;BME280;48134;53.586;10.610;2023-08-07T10:51:30;99867.94;;;16.09;100.00
62150;BME280;48134;53.586;10.610;2023-08-07T10:54:04;99850.81;;;16.12;100.00
62150;BME280;48134;53.586;10.610;2023-08-07T10:56:37;99847.56;;;16.31;100.00
62150;BME280;48134;53.586;10.610;2023-08-07T10:59:12;99844.03;;;16.56;100.00
62150;BME280;48134;53.586;10.610;2023-08-07T11:01:50;99849.84;;;16.42;100.00
62150;BME280;48134;53.586;10.610;2023-08-07T11:04:19;99847.03;;;16.51;100.00
62150;BME280;48134;53.586;10.610;2023-08-07T11:06:54;99859.06;;;16.71;100.00
62150;BME280;48134;53.586;10.610;2023-08-07T11:09:23;99863.63;;;16.54;100.00
62150;BME280;48134;53.586;10.610;2023-08-07T11:11:56;99868.72;;;16.31;100.00
62150;BME280;48134;53.586;10.610;2023-08-07T11:14:24;99858.41;;;16.28;100.00
62150;BME280;48134;53.586;10.610;2023-08-07T11:16:57;99850.50;;;16.26;100.00
62150;BME280;48134;53.586;10.610;2023-08-07T11:19:31;99858.50;;;16.19;100.00
62150;BME280;48134;53.586;10.610;2023-08-07T11:22:05;99864.19;;;16.47;100.00
62150;BME280;48134;53.586;10.610;2023-08-07T11:24:39;99858.81;;;16.51;100.00
62150;BME280;48134;53.586;10.610;2023-08-07T11:27:12;99865.81;;;16.61;100.00
62150;BME280;48134;53.586;10.610;2023-08-07T11:29:48;99865.78;;;16.48;100.00
62150;BME280;48134;53.586;10.610;2023-08-07T11:32:21;99869.78;;;16.51;100.00
62150;BME280;48134;53.586;10.610;2023-08-07T11:34:50;99875.06;;;16.56;100.00
62150;BME280;48134;53.586;10.610;2023-08-07T11:37:24;99873.00;;;17.11;100.00
62150;BME280;48134;53.586;10.610;2023-08-07T11:40:00;99861.41;;;17.30;100.00
62150;BME280;48134;53.586;10.610;2023-08-07T11:42:33;99866.28;;;17.62;100.00
62150;BME280;48134;53.586;10.610;2023-08-07T11:45:02;99857.66;;;17.63;100.00
62150;BME280;48134;53.586;10.610;2023-08-07T11:47:36;99859.47;;;17.31;100.00
62150;BME280;48134;53.586;10.610;2023-08-07T11:50:05;99878.88;;;16.76;100.00
62150;BME280;48134;53.586;10.610;2023-08-07T11:52:40;99869.81;;;16.18;100.00
62150;BME280;48134;53.586;10.610;2023-08-07T11:55:14;99895.84;;;16.11;100.00
62150;BME280;48134;53.586;10.610;2023-08-07T11:57:42;99878.53;;;15.98;100.00
62150;BME280;48134;53.586;10.610;2023-08-07T12:00:12;99892.75;;;16.34;100.00
62150;BME280;48134;53.586;10.610;2023-08-07T12:02:42;99885.81;;;16.49;100.00
62150;BME280;48134;53.586;10.610;2023-08-07T12:05:16;99882.22;;;16.70;100.00
62150;BME280;48134;53.586;10.610;2023-08-07T12:07:51;99888.09;;;16.47;100.00
62150;BME280;48134;53.586;10.610;2023-08-07T12:10:19;99886.13;;;16.35;100.00
62150;BME280;48134;53.586;10.610;2023-08-07T12:12:47;99881.81;;;16.13;100.00
62150;BME280;48134;53.586;10.610;2023-08-07T12:15:16;99914.53;;;16.18;100.00
62150;BME280;48134;53.586;10.610;2023-08-07T12:17:46;99885.94;;;16.19;100.00
62150;BME280;48134;53.586;10.610;2023-08-07T12:20:19;99883.72;;;16.46;100.00
62150;BME280;48134;53.586;10.610;2023-08-07T12:22:47;99889.84;;;16.64;100.00
62150;BME280;48134;53.586;10.610;2023-08-07T12:25:22;99890.00;;;16.80;100.00
62150;BME280;48134;53.586;10.610;2023-08-07T12:27:51;99898.03;;;16.85;100.00
62150;BME280;48134;53.586;10.610;2023-08-07T12:30:19;99912.38;;;17.03;100.00
62150;BME280;48134;53.586;10.610;2023-08-07T12:32:48;99913.81;;;16.88;100.00
62150;BME280;48134;53.586;10.610;2023-08-07T12:35:21;99922.13;;;16.55;100.00
62150;BME280;48134;53.586;10.610;2023-08-07T12:37:54;99912.72;;;16.22;100.00
62150;BME280;48134;53.586;10.610;2023-08-07T12:40:29;99924.50;;;16.23;100.00
62150;BME280;48134;53.586;10.610;2023-08-07T12:43:03;99908.63;;;16.28;100.00
62150;BME280;48134;53.586;10.610;2023-08-07T12:45:31;99911.00;;;16.97;100.00
62150;BME280;48134;53.586;10.610;2023-08-07T12:48:05;99917.81;;;16.78;100.00
62150;BME280;48134;53.586;10.610;2023-08-07T12:50:34;99924.06;;;17.37;100.00
62150;BME280;48134;53.586;10.610;2023-08-07T12:53:08;99920.75;;;17.19;100.00
62150;BME280;48134;53.586;10.610;2023-08-07T12:55:42;99916.72;;;16.92;100.00
62150;BME280;48134;53.586;10.610;2023-08-07T12:58:11;99933.97;;;16.80;100.00
62150;BME280;48134;53.586;10.610;2023-08-07T13:00:39;99945.66;;;16.01;100.00
62150;BME280;48134;53.586;10.610;2023-08-07T13:03:12;99953.34;;;15.87;100.00
62150;BME280;48134;53.586;10.610;2023-08-07T13:05:45;99951.84;;;15.68;100.00
62150;BME280;48134;53.586;10.610;2023-08-07T13:08:18;99959.44;;;15.62;100.00